Date,TemperatureHighF,TemperatureAvgF,TemperatureLowF,DewpointHighF,DewpointAvgF,DewpointLowF,HumidityHigh,HumidityAvg,HumidityLow,PressureMaxIn,PressureMinIn,WindSpeedMaxMPH,WindSpeedAvgMPH,GustSpeedMaxMPH,PrecipitationSumIn
2013-10-4,62.2,52.2,41.2,55.6,48.8,38.5,92,88,79,28.63,28.58,1,0,2,0.06
2013-10-5,61.2,57.1,54.3,54.7,53.1,51.7,92,87,74,28.67,28.60,1,0,2,0.01
2013-10-6,56.1,51.6,48.9,53.5,49.5,47.0,95,93,91,28.72,28.64,2,0,4,0.02
2013-10-7,65.8,55.1,49.8,62.3,52.8,47.2,95,92,88,28.65,28.23,5,0,14,0.52
2013-10-8,61.3,49.4,38.1,47.1,41.1,34.6,92,75,45,28.88,28.46,4,1,8,0.01
2013-10-9,64.4,51.2,37.6,44.9,40.2,34.6,94,68,41,29.00,28.88,3,0,8,0.00
2013-10-10,60.3,55.9,50.2,49.4,46.0,42.6,92,71,53,28.84,28.80,2,0,2,0.00
2013-10-11,68.4,56.2,38.1,49.8,43.2,35.0,89,65,36,28.73,28.65,2,0,3,0.00
2013-10-12,60.3,47.3,33.3,51.9,42.0,30.4,94,82,69,28.91,28.72,4,0,7,0.00
2013-10-13,69.3,50.9,39.9,48.4,43.3,36.9,90,77,45,28.95,28.87,3,0,5,0.00
2013-10-14,65.1,53.5,41.9,51.9,46.9,39.2,91,79,60,28.90,28.75,2,0,5,0.00
2013-10-15,60.1,55.5,49.1,52.7,50.5,45.8,89,83,75,28.79,28.67,1,0,2,0.00
2013-10-16,60.4,52.0,46.9,49.9,46.2,44.1,92,81,62,28.68,28.40,2,0,4,0.00
2013-10-17,69.3,52.9,46.0,52.9,46.0,41.7,91,79,47,28.41,28.21,3,0,7,0.17
2013-10-18,55.8,51.2,48.2,49.4,43.9,35.9,91,77,60,28.41,28.13,4,1,11,0.24
2013-10-19,62.1,48.6,34.5,44.7,39.2,29.9,89,71,48,28.46,28.22,4,0,8,0.03
2013-10-20,51.3,45.4,37.4,44.6,37.3,31.8,88,74,57,28.51,28.18,5,1,10,0.11
2013-10-21,63.0,44.1,29.7,42.4,35.2,25.7,89,73,42,28.58,28.44,4,0,9,0.00
2013-10-22,48.7,39.7,32.5,45.3,35.5,28.3,90,85,76,28.44,28.23,4,0,7,0.19
2013-10-23,54.3,37.8,28.6,37.5,30.6,24.9,90,76,44,28.28,28.09,3,0,5,0.00
2013-10-24,45.7,37.0,28.6,31.7,28.5,22.2,82,71,55,28.36,28.16,5,1,14,0.00
2013-10-25,43.7,37.3,33.8,29.7,25.6,22.1,73,63,46,28.59,28.35,4,1,11,0.00
2013-10-26,41.7,36.6,32.9,31.3,29.0,25.1,82,74,57,28.59,28.49,4,0,7,0.01